sensor_id;sensor_type;location;lat;lon;timestamp;pressure;altitude;pressure_sealevel;temperature;humidity
11682;BME280;5897;42.640;23.310;2023-04-21T00:01:28;93504.53;;;11.51;69.85
11682;BME280;5897;42.640;23.310;2023-04-21T00:03:56;93504.53;;;11.51;69.51
11682;BME280;5897;42.640;23.310;2023-04-21T00:06:23;93503.44;;;11.48;69.58
11682;BME280;5897;42.640;23.310;2023-04-21T00:08:51;93509.72;;;11.45;69.48
11682;BME280;5897;42.640;23.310;2023-04-21T00:11:18;93504.44;;;11.42;69.58
11682;BME280;5897;42.640;23.310;2023-04-21T00:13:46;93504.44;;;11.42;69.66
11682;BME280;5897;42.640;23.310;2023-04-21T00:16:13;93503.50;;;11.36;69.62
11682;BME280;5897;42.640;23.310;2023-04-21T00:18:40;93505.47;;;11.35;69.98
11682;BME280;5897;42.640;23.310;2023-04-21T00:21:06;93506.09;;;11.39;69.44
11682;BME280;5897;42.640;23.310;2023-04-21T00:23:33;93504.59;;;11.38;70.58
11682;BME280;5897;42.640;23.310;2023-04-21T00:26:00;93503.44;;;11.48;71.61
11682;BME280;5897;42.640;23.310;2023-04-21T00:28:27;93510.22;;;11.52;69.03
11682;BME280;5897;42.640;23.310;2023-04-21T00:30:56;93504.69;;;11.56;68.79
11682;BME280;5897;42.640;23.310;2023-04-21T00:33:23;93497.03;;;11.55;69.59
11682;BME280;5897;42.640;23.310;2023-04-21T00:35:49;93500.78;;;11.57;67.87
11682;BME280;5897;42.640;23.310;2023-04-21T00:38:18;93507.78;;;11.46;68.56
11682;BME280;5897;42.640;23.310;2023-04-21T00:40:45;93515.78;;;11.49;69.81
11682;BME280;5897;42.640;23.310;2023-04-21T00:43:12;93512.94;;;11.52;69.68
11682;BME280;5897;42.640;23.310;2023-04-21T00:45:39;93509.66;;;11.57;68.39
11682;BME280;5897;42.640;23.310;2023-04-21T00:48:07;93499.25;;;11.47;68.22
11682;BME280;5897;42.640;23.310;2023-04-21T00:50:34;93510.50;;;11.46;67.97
11682;BME280;5897;42.640;23.310;2023-04-21T00:53:00;93510.75;;;11.39;67.78
11682;BME280;5897;42.640;23.310;2023-04-21T00:55:27;93510.00;;;11.38;67.96
11682;BME280;5897;42.640;23.310;2023-04-21T00:57:55;93489.88;;;11.18;68.37
11682;BME280;5897;42.640;23.310;2023-04-21T01:00:23;93496.66;;;11.22;69.16
11682;BME280;5897;42.640;23.310;2023-04-21T01:02:50;93510.72;;;11.17;69.55
11682;BME280;5897;42.640;23.310;2023-04-21T01:05:18;93499.81;;;11.21;69.32
11682;BME280;5897;42.640;23.310;2023-04-21T01:07:45;93505.66;;;11.19;69.64
11682;BME280;5897;42.640;23.310;2023-04-21T01:10:12;93505.31;;;11.17;69.92
11682;BME280;5897;42.640;23.310;2023-04-21T01:12:42;93513.00;;;11.19;69.80
11682;BME280;5897;42.640;23.310;2023-04-21T01:15:10;93506.97;;;11.15;70.33
11682;BME280;5897;42.640;23.310;2023-04-21T01:17:37;93503.00;;;11.07;70.80
11682;BME280;5897;42.640;23.310;2023-04-21T01:20:08;93504.38;;;11.11;70.69
11682;BME280;5897;42.640;23.310;2023-04-21T01:22:38;93496.28;;;11.11;71.17
11682;BME280;5897;42.640;23.310;2023-04-21T01:25:06;93500.13;;;11.01;71.79
11682;BME280;5897;42.640;23.310;2023-04-21T01:27:33;93490.81;;;11.02;71.63
11682;BME280;5897;42.640;23.310;2023-04-21T01:30:00;93487.22;;;11.05;71.28
11682;BME280;5897;42.640;23.310;2023-04-21T01:32:28;93494.38;;;10.99;71.50
11682;BME280;5897;42.640;23.310;2023-04-21T01:34:57;93484.47;;;10.96;71.48
11682;BME280;5897;42.640;23.310;2023-04-21T01:37:26;93477.47;;;10.86;71.31
11682;BME280;5897;42.640;23.310;2023-04-21T01:39:57;93483.69;;;10.96;71.30
11682;BME280;5897;42.640;23.310;2023-04-21T01:42:25;93479.34;;;10.98;71.16
11682;BME280;5897;42.640;23.310;2023-04-21T01:44:53;93484.13;;;10.94;70.96
11682;BME280;5897;42.640;23.310;2023-04-21T01:47:20;93478.72;;;10.94;70.75
11682;BME280;5897;42.640;23.310;2023-04-21T01:49:47;93479.47;;;10.95;70.97
11682;BME280;5897;42.640;23.310;2023-04-21T01:52:14;93482.75;;;10.90;70.91
11682;BME280;5897;42.640;23.310;2023-04-21T01:54:41;93479.31;;;10.89;70.59
11682;BME280;5897;42.640;23.310;2023-04-21T01:57:09;93482.88;;;10.86;70.87
11682;BME280;5897;42.640;23.310;2023-04-21T01:59:37;93483.50;;;10.90;70.79
11682;BME280;5897;42.640;23.310;2023-04-21T02:02:04;93461.16;;;10.77;70.73
11682;BME280;5897;42.640;23.310;2023-04-21T02:04:31;93472.81;;;10.87;71.09
11682;BME280;5897;42.640;23.310;2023-04-21T02:06:57;93480.41;;;10.79;71.11
11682;BME280;5897;42.640;23.310;2023-04-21T02:09:24;93481.91;;;10.80;71.59
11682;BME280;5897;42.640;23.310;2023-04-21T02:11:51;93478.03;;;10.81;72.01
11682;BME280;5897;42.640;23.310;2023-04-21T02:14:19;93484.19;;;10.82;71.76
11682;BME280;5897;42.640;23.310;2023-04-21T02:16:46;93481.16;;;10.80;72.27
11682;BME280;5897;42.640;23.310;2023-04-21T02:19:13;93477.31;;;10.68;72.99
11682;BME280;5897;42.640;23.310;2023-04-21T02:21:42;93467.78;;;10.76;74.52
11682;BME280;5897;42.640;23.310;2023-04-21T02:24:09;93467.09;;;10.85;76.16
11682;BME280;5897;42.640;23.310;2023-04-21T02:26:35;93476.59;;;10.89;74.39
11682;BME280;5897;42.640;23.310;2023-04-21T02:29:02;93475.41;;;10.90;74.15
11682;BME280;5897;42.640;23.310;2023-04-21T02:31:30;93476.69;;;10.86;73.50
11682;BME280;5897;42.640;23.310;2023-04-21T02:33:57;93479.66;;;10.79;75.23
11682;BME280;5897;42.640;23.310;2023-04-21T02:36:24;93483.50;;;10.90;75.94
11682;BME280;5897;42.640;23.310;2023-04-21T02:38:51;93476.00;;;10.94;77.35
11682;BME280;5897;42.640;23.310;2023-04-21T02:41:17;93473.00;;;10.92;74.83
11682;BME280;5897;42.640;23.310;2023-04-21T02:43:45;93477.03;;;10.88;74.73
11682;BME280;5897;42.640;23.310;2023-04-21T02:46:11;93477.78;;;10.88;74.90
11682;BME280;5897;42.640;23.310;2023-04-21T02:48:39;93481.25;;;10.89;74.87
11682;BME280;5897;42.640;23.310;2023-04-21T02:51:10;93479.31;;;10.89;74.91
11682;BME280;5897;42.640;23.310;2023-04-21T02:53:38;93476.47;;;10.93;74.85
11682;BME280;5897;42.640;23.310;2023-04-21T02:56:05;93475.84;;;10.89;75.00
11682;BME280;5897;42.640;23.310;2023-04-21T02:58:33;93478.41;;;10.92;75.08
11682;BME280;5897;42.640;23.310;2023-04-21T03:01:00;93477.22;;;10.93;74.60
11682;BME280;5897;42.640;23.310;2023-04-21T03:03:27;93479.63;;;10.91;74.98
11682;BME280;5897;42.640;23.310;2023-04-21T03:05:59;93475.47;;;10.99;74.94
11682;BME280;5897;42.640;23.310;2023-04-21T03:08:27;93484.22;;;11.03;73.86
11682;BME280;5897;42.640;23.310;2023-04-21T03:10:54;93485.28;;;11.06;74.11
11682;BME280;5897;42.640;23.310;2023-04-21T03:13:21;93484.03;;;10.98;74.96
11682;BME280;5897;42.640;23.310;2023-04-21T03:15:47;93482.06;;;10.98;74.77
11682;BME280;5897;42.640;23.310;2023-04-21T03:18:14;93481.19;;;11.01;74.83
11682;BME280;5897;42.640;23.310;2023-04-21T03:20:42;93492.00;;;11.01;73.85
11682;BME280;5897;42.640;23.310;2023-04-21T03:23:10;93491.13;;;11.04;73.97
11682;BME280;5897;42.640;23.310;2023-04-21T03:25:37;93491.31;;;11.10;73.60
11682;BME280;5897;42.640;23.310;2023-04-21T03:28:04;93488.50;;;11.13;73.14
11682;BME280;5897;42.640;23.310;2023-04-21T03:30:31;93488.16;;;11.11;73.16
11682;BME280;5897;42.640;23.310;2023-04-21T03:32:58;93488.09;;;11.02;73.10
11682;BME280;5897;42.640;23.310;2023-04-21T03:35:25;93488.22;;;10.99;73.25
11682;BME280;5897;42.640;23.310;2023-04-21T03:37:52;93495.94;;;10.88;73.72
11682;BME280;5897;42.640;23.310;2023-04-21T03:40:20;93490.72;;;10.93;73.78
11682;BME280;5897;42.640;23.310;2023-04-21T03:42:47;93496.69;;;10.88;73.57
11682;BME280;5897;42.640;23.310;2023-04-21T03:45:14;93475.56;;;10.74;73.87
11682;BME280;5897;42.640;23.310;2023-04-21T03:47:43;93495.63;;;10.86;74.04
11682;BME280;5897;42.640;23.310;2023-04-21T03:50:09;93504.06;;;10.88;73.72
11682;BME280;5897;42.640;23.310;2023-04-21T03:52:36;93485.38;;;10.81;73.83
11682;BME280;5897;42.640;23.310;2023-04-21T03:55:03;93497.59;;;10.73;73.94
11682;BME280;5897;42.640;23.310;2023-04-21T03:57:34;93490.88;;;10.77;74.30
11682;BME280;5897;42.640;23.310;2023-04-21T04:00:01;93497.47;;;10.76;74.11
11682;BME280;5897;42.640;23.310;2023-04-21T04:02:29;93495.84;;;10.79;73.87
11682;BME280;5897;42.640;23.310;2023-04-21T04:04:56;93509.63;;;10.72;74.32
11682;BME280;5897;42.640;23.310;2023-04-21T04:07:23;93510.13;;;10.79;73.91
11682;BME280;5897;42.640;23.310;2023-04-21T04:09:50;93502.84;;;10.89;73.11
11682;BME280;5897;42.640;23.310;2023-04-21T04:12:17;93512.91;;;10.88;73.48
11682;BME280;5897;42.640;23.310;2023-04-21T04:14:45;93513.97;;;10.91;73.39
11682;BME280;5897;42.640;23.310;2023-04-21T04:17:12;93517.44;;;10.91;73.65
11682;BME280;5897;42.640;23.310;2023-04-21T04:19:38;93516.81;;;11.09;73.04
11682;BME280;5897;42.640;23.310;2023-04-21T04:22:05;93525.16;;;11.14;73.19
11682;BME280;5897;42.640;23.310;2023-04-21T04:24:32;93524.16;;;11.21;72.48
11682;BME280;5897;42.640;23.310;2023-04-21T04:27:00;93529.09;;;11.22;72.73
11682;BME280;5897;42.640;23.310;2023-04-21T04:29:28;93530.00;;;11.19;72.93
11682;BME280;5897;42.640;23.310;2023-04-21T04:31:56;93517.22;;;11.20;72.75
11682;BME280;5897;42.640;23.310;2023-04-21T04:34:25;93537.41;;;11.28;72.48
11682;BME280;5897;42.640;23.310;2023-04-21T04:36:52;93537.22;;;11.22;73.30
11682;BME280;5897;42.640;23.310;2023-04-21T04:39:21;93539.69;;;11.29;73.23
11682;BME280;5897;42.640;23.310;2023-04-21T04:41:50;93535.53;;;11.37;72.27
11682;BME280;5897;42.640;23.310;2023-04-21T04:44:17;93542.66;;;11.44;72.43
11682;BME280;5897;42.640;23.310;2023-04-21T04:46:43;93538.88;;;11.41;72.38
11682;BME280;5897;42.640;23.310;2023-04-21T04:49:13;93548.09;;;11.31;73.40
11682;BME280;5897;42.640;23.310;2023-04-21T04:51:40;93548.22;;;11.28;73.40
11682;BME280;5897;42.640;23.310;2023-04-21T04:54:07;93551.13;;;11.33;73.64
11682;BME280;5897;42.640;23.310;2023-04-21T04:56:34;93539.78;;;11.26;73.91
11682;BME280;5897;42.640;23.310;2023-04-21T04:59:01;93551.88;;;11.34;73.97
11682;BME280;5897;42.640;23.310;2023-04-21T05:01:28;93551.00;;;11.37;73.92
11682;BME280;5897;42.640;23.310;2023-04-21T05:03:56;93549.22;;;11.43;74.01
11682;BME280;5897;42.640;23.310;2023-04-21T05:06:24;93545.16;;;11.38;73.84
11682;BME280;5897;42.640;23.310;2023-04-21T05:08:52;93551.13;;;11.33;74.45
11682;BME280;5897;42.640;23.310;2023-04-21T05:11:20;93540.94;;;11.37;74.03
11682;BME280;5897;42.640;23.310;2023-04-21T05:13:47;93545.56;;;11.37;74.14
11682;BME280;5897;42.640;23.310;2023-04-21T05:16:14;93558.41;;;11.45;73.70
11682;BME280;5897;42.640;23.310;2023-04-21T05:18:40;93553.91;;;11.42;74.09
11682;BME280;5897;42.640;23.310;2023-04-21T05:21:07;93542.88;;;11.37;74.95
11682;BME280;5897;42.640;23.310;2023-04-21T05:23:35;93549.34;;;11.39;74.71
11682;BME280;5897;42.640;23.310;2023-04-21T05:26:02;93561.13;;;11.45;75.48
11682;BME280;5897;42.640;23.310;2023-04-21T05:28:29;93556.47;;;11.46;75.85
11682;BME280;5897;42.640;23.310;2023-04-21T05:30:56;93553.28;;;11.60;75.61
11682;BME280;5897;42.640;23.310;2023-04-21T05:33:23;93561.06;;;11.79;74.50
11682;BME280;5897;42.640;23.310;2023-04-21T05:35:51;93550.25;;;11.79;74.27
11682;BME280;5897;42.640;23.310;2023-04-21T05:38:17;93555.88;;;11.85;73.74
11682;BME280;5897;42.640;23.310;2023-04-21T05:40:51;93549.69;;;11.84;74.04
11682;BME280;5897;42.640;23.310;2023-04-21T05:43:18;93550.88;;;11.83;73.89
11682;BME280;5897;42.640;23.310;2023-04-21T05:45:45;93553.31;;;11.90;74.06
11682;BME280;5897;42.640;23.310;2023-04-21T05:48:12;93529.78;;;11.69;73.52
11682;BME280;5897;42.640;23.310;2023-04-21T05:50:39;93553.03;;;11.88;73.79
11682;BME280;5897;42.640;23.310;2023-04-21T05:53:05;93553.53;;;11.96;74.34
11682;BME280;5897;42.640;23.310;2023-04-21T05:55:33;93548.28;;;12.01;73.19
11682;BME280;5897;42.640;23.310;2023-04-21T05:58:01;93558.81;;;11.99;73.87
11682;BME280;5897;42.640;23.310;2023-04-21T06:00:28;93562.25;;;11.99;73.64
11682;BME280;5897;42.640;23.310;2023-04-21T06:02:55;93556.94;;;11.87;74.46
11682;BME280;5897;42.640;23.310;2023-04-21T06:05:22;93552.13;;;11.91;73.98
11682;BME280;5897;42.640;23.310;2023-04-21T06:07:49;93543.34;;;12.08;74.21
11682;BME280;5897;42.640;23.310;2023-04-21T06:10:16;93546.41;;;12.19;74.03
11682;BME280;5897;42.640;23.310;2023-04-21T06:12:43;93546.47;;;12.28;73.97
11682;BME280;5897;42.640;23.310;2023-04-21T06:15:11;93546.53;;;12.46;73.59
11682;BME280;5897;42.640;23.310;2023-04-21T06:17:38;93547.28;;;12.56;73.18
11682;BME280;5897;42.640;23.310;2023-04-21T06:20:07;93546.00;;;12.78;72.70
11682;BME280;5897;42.640;23.310;2023-04-21T06:22:34;93544.19;;;12.75;72.16
11682;BME280;5897;42.640;23.310;2023-04-21T06:25:00;93554.59;;;12.86;70.63
11682;BME280;5897;42.640;23.310;2023-04-21T06:27:27;93548.88;;;12.84;70.27
11682;BME280;5897;42.640;23.310;2023-04-21T06:29:54;93547.38;;;12.83;71.47
11682;BME280;5897;42.640;23.310;2023-04-21T06:32:22;93556.47;;;13.07;71.47
11682;BME280;5897;42.640;23.310;2023-04-21T06:34:49;93548.66;;;13.36;70.10
11682;BME280;5897;42.640;23.310;2023-04-21T06:37:16;93541.72;;;13.35;68.52
11682;BME280;5897;42.640;23.310;2023-04-21T06:39:43;93541.09;;;13.49;68.90
11682;BME280;5897;42.640;23.310;2023-04-21T06:42:10;93541.53;;;13.56;67.92
11682;BME280;5897;42.640;23.310;2023-04-21T06:44:36;93540.81;;;13.47;67.93
11682;BME280;5897;42.640;23.310;2023-04-21T06:47:03;93526.03;;;13.48;68.95
11682;BME280;5897;42.640;23.310;2023-04-21T06:49:31;93539.75;;;13.35;68.13
11682;BME280;5897;42.640;23.310;2023-04-21T06:51:59;93541.53;;;13.56;69.34
11682;BME280;5897;42.640;23.310;2023-04-21T06:54:26;93533.22;;;13.78;68.74
11682;BME280;5897;42.640;23.310;2023-04-21T06:56:52;93538.66;;;13.78;67.90
11682;BME280;5897;42.640;23.310;2023-04-21T06:59:19;93534.13;;;13.75;65.14
11682;BME280;5897;42.640;23.310;2023-04-21T07:01:46;93533.81;;;13.91;66.69
11682;BME280;5897;42.640;23.310;2023-04-21T07:04:16;93534.34;;;14.13;65.26
11682;BME280;5897;42.640;23.310;2023-04-21T07:06:44;93539.38;;;13.87;66.54
11682;BME280;5897;42.640;23.310;2023-04-21T07:09:11;93526.66;;;14.11;65.95
11682;BME280;5897;42.640;23.310;2023-04-21T07:11:38;93529.34;;;14.20;65.26
11682;BME280;5897;42.640;23.310;2023-04-21T07:14:05;93540.91;;;14.39;63.87
11682;BME280;5897;42.640;23.310;2023-04-21T07:16:31;93522.06;;;14.35;63.85
11682;BME280;5897;42.640;23.310;2023-04-21T07:18:58;93536.28;;;14.30;63.00
11682;BME280;5897;42.640;23.310;2023-04-21T07:21:26;93541.00;;;14.21;64.41
11682;BME280;5897;42.640;23.310;2023-04-21T07:23:56;93531.63;;;14.22;64.96
11682;BME280;5897;42.640;23.310;2023-04-21T07:26:23;93537.84;;;14.55;65.38
11682;BME280;5897;42.640;23.310;2023-04-21T07:28:49;93527.09;;;14.84;63.34
11682;BME280;5897;42.640;23.310;2023-04-21T07:31:17;93532.00;;;14.94;62.08
11682;BME280;5897;42.640;23.310;2023-04-21T07:33:44;93520.31;;;15.03;62.48
11682;BME280;5897;42.640;23.310;2023-04-21T07:36:10;93534.38;;;15.25;60.97
11682;BME280;5897;42.640;23.310;2023-04-21T07:38:37;93538.25;;;15.56;60.62
11682;BME280;5897;42.640;23.310;2023-04-21T07:41:08;93525.41;;;15.71;59.09
11682;BME280;5897;42.640;23.310;2023-04-21T07:43:35;93534.81;;;15.70;59.31
11682;BME280;5897;42.640;23.310;2023-04-21T07:46:05;93529.81;;;15.69;58.00
11682;BME280;5897;42.640;23.310;2023-04-21T07:48:32;93520.78;;;15.48;57.76
11682;BME280;5897;42.640;23.310;2023-04-21T07:50:59;93530.09;;;15.71;59.89
11682;BME280;5897;42.640;23.310;2023-04-21T07:53:27;93540.13;;;15.65;58.48
11682;BME280;5897;42.640;23.310;2023-04-21T07:55:55;93530.47;;;15.64;57.41
11682;BME280;5897;42.640;23.310;2023-04-21T07:58:23;93537.38;;;15.50;58.15
11682;BME280;5897;42.640;23.310;2023-04-21T08:00:50;93543.13;;;15.29;58.15
11682;BME280;5897;42.640;23.310;2023-04-21T08:03:17;93549.31;;;15.29;57.77
11682;BME280;5897;42.640;23.310;2023-04-21T08:05:44;93546.50;;;15.24;58.28
11682;BME280;5897;42.640;23.310;2023-04-21T08:08:10;93539.44;;;15.41;59.38
11682;BME280;5897;42.640;23.310;2023-04-21T08:10:37;93543.28;;;15.49;58.06
11682;BME280;5897;42.640;23.310;2023-04-21T08:13:04;93542.53;;;15.34;59.33
11682;BME280;5897;42.640;23.310;2023-04-21T08:15:33;93536.00;;;15.08;58.72
11682;BME280;5897;42.640;23.310;2023-04-21T08:18:00;93536.00;;;15.08;59.00
11682;BME280;5897;42.640;23.310;2023-04-21T08:20:26;93535.59;;;15.24;60.11
11682;BME280;5897;42.640;23.310;2023-04-21T08:22:53;93521.97;;;15.33;58.97
11682;BME280;5897;42.640;23.310;2023-04-21T08:25:20;93528.34;;;15.82;58.59
11682;BME280;5897;42.640;23.310;2023-04-21T08:27:47;93518.81;;;16.36;57.73
11682;BME280;5897;42.640;23.310;2023-04-21T08:30:14;93524.84;;;16.40;55.83
11682;BME280;5897;42.640;23.310;2023-04-21T08:32:43;93516.75;;;16.31;55.13
11682;BME280;5897;42.640;23.310;2023-04-21T08:35:09;93528.06;;;16.24;56.23
11682;BME280;5897;42.640;23.310;2023-04-21T08:37:39;93529.66;;;16.01;55.97
11682;BME280;5897;42.640;23.310;2023-04-21T08:40:07;93536.59;;;16.17;56.56
11682;BME280;5897;42.640;23.310;2023-04-21T08:42:33;93528.53;;;16.08;55.30
11682;BME280;5897;42.640;23.310;2023-04-21T08:45:01;93529.00;;;15.92;56.00
11682;BME280;5897;42.640;23.310;2023-04-21T08:47:28;93528.34;;;15.82;55.99
11682;BME280;5897;42.640;23.310;2023-04-21T08:49:58;93526.66;;;15.85;55.43
11682;BME280;5897;42.640;23.310;2023-04-21T08:52:25;93526.34;;;15.83;56.59
11682;BME280;5897;42.640;23.310;2023-04-21T08:54:52;93523.94;;;15.85;56.04
11682;BME280;5897;42.640;23.310;2023-04-21T08:57:19;93518.66;;;15.81;55.54
11682;BME280;5897;42.640;23.310;2023-04-21T08:59:46;93517.44;;;15.68;56.43
11682;BME280;5897;42.640;23.310;2023-04-21T09:02:14;93524.13;;;15.81;57.26
11682;BME280;5897;42.640;23.310;2023-04-21T09:04:42;93517.34;;;15.91;56.77
11682;BME280;5897;42.640;23.310;2023-04-21T09:07:11;93506.91;;;16.19;57.60
11682;BME280;5897;42.640;23.310;2023-04-21T09:09:51;93503.78;;;16.55;56.69
11682;BME280;5897;42.640;23.310;2023-04-21T09:12:18;93506.75;;;16.91;52.92
11682;BME280;5897;42.640;23.310;2023-04-21T09:14:45;93503.00;;;17.29;51.26
11682;BME280;5897;42.640;23.310;2023-04-21T09:17:14;93505.59;;;17.58;50.92
11682;BME280;5897;42.640;23.310;2023-04-21T09:19:41;93493.25;;;17.88;50.23
11682;BME280;5897;42.640;23.310;2023-04-21T09:22:08;93498.75;;;18.19;48.55
11682;BME280;5897;42.640;23.310;2023-04-21T09:24:36;93494.88;;;18.31;49.21
11682;BME280;5897;42.640;23.310;2023-04-21T09:27:09;93487.03;;;18.44;48.75
11682;BME280;5897;42.640;23.310;2023-04-21T09:29:36;93481.25;;;18.73;48.57
11682;BME280;5897;42.640;23.310;2023-04-21T09:32:03;93484.44;;;19.08;47.23
11682;BME280;5897;42.640;23.310;2023-04-21T09:34:30;93474.13;;;19.34;45.49
11682;BME280;5897;42.640;23.310;2023-04-21T09:37:00;93483.66;;;19.55;43.24
11682;BME280;5897;42.640;23.310;2023-04-21T09:39:28;93482.41;;;19.56;43.62
11682;BME280;5897;42.640;23.310;2023-04-21T09:41:56;93456.25;;;19.44;44.75
11682;BME280;5897;42.640;23.310;2023-04-21T09:44:23;93469.00;;;19.69;43.00
11682;BME280;5897;42.640;23.310;2023-04-21T09:46:54;93480.78;;;20.02;42.21
11682;BME280;5897;42.640;23.310;2023-04-21T09:49:22;93476.09;;;20.19;40.24
11682;BME280;5897;42.640;23.310;2023-04-21T09:51:49;93473.75;;;19.85;41.11
11682;BME280;5897;42.640;23.310;2023-04-21T09:54:17;93466.19;;;19.41;44.24
11682;BME280;5897;42.640;23.310;2023-04-21T09:56:48;93469.84;;;19.27;44.35
11682;BME280;5897;42.640;23.310;2023-04-21T09:59:20;93467.47;;;19.57;46.12
11682;BME280;5897;42.640;23.310;2023-04-21T10:01:51;93466.53;;;19.82;42.62
11682;BME280;5897;42.640;23.310;2023-04-21T10:04:19;93465.81;;;19.92;41.71
11682;BME280;5897;42.640;23.310;2023-04-21T10:06:47;93470.53;;;19.86;43.83
11682;BME280;5897;42.640;23.310;2023-04-21T10:09:17;93466.84;;;20.11;40.76
11682;BME280;5897;42.640;23.310;2023-04-21T10:11:46;93464.09;;;20.44;39.84
11682;BME280;5897;42.640;23.310;2023-04-21T10:14:13;93461.84;;;20.21;39.26
11682;BME280;5897;42.640;23.310;2023-04-21T10:16:42;93452.63;;;19.96;39.69
11682;BME280;5897;42.640;23.310;2023-04-21T10:19:25;93451.13;;;20.01;39.09
11682;BME280;5897;42.640;23.310;2023-04-21T10:21:54;93449.06;;;19.63;38.52
11682;BME280;5897;42.640;23.310;2023-04-21T10:24:21;93444.56;;;19.49;40.68
11682;BME280;5897;42.640;23.310;2023-04-21T10:26:49;93448.72;;;19.28;42.07
11682;BME280;5897;42.640;23.310;2023-04-21T10:29:27;93451.38;;;19.11;41.60
11682;BME280;5897;42.640;23.310;2023-04-21T10:31:56;93439.41;;;19.09;42.65
11682;BME280;5897;42.640;23.310;2023-04-21T10:34:33;93454.13;;;18.69;43.91
11682;BME280;5897;42.640;23.310;2023-04-21T10:37:12;93451.72;;;18.40;44.36
11682;BME280;5897;42.640;23.310;2023-04-21T10:39:54;93452.75;;;17.86;46.79
11682;BME280;5897;42.640;23.310;2023-04-21T10:42:34;93447.56;;;17.63;48.42
11682;BME280;5897;42.640;23.310;2023-04-21T10:45:07;93461.97;;;17.63;49.08
11682;BME280;5897;42.640;23.310;2023-04-21T10:47:53;93462.94;;;17.86;48.87
11682;BME280;5897;42.640;23.310;2023-04-21T10:50:21;93455.44;;;18.43;47.44
11682;BME280;5897;42.640;23.310;2023-04-21T10:52:58;93462.41;;;18.80;46.08
11682;BME280;5897;42.640;23.310;2023-04-21T10:55:27;93459.44;;;18.42;46.51
11682;BME280;5897;42.640;23.310;2023-04-21T10:57:54;93467.69;;;17.91;46.18
11682;BME280;5897;42.640;23.310;2023-04-21T11:00:23;93476.31;;;17.58;45.68
11682;BME280;5897;42.640;23.310;2023-04-21T11:02:59;93469.19;;;17.21;47.30
11682;BME280;5897;42.640;23.310;2023-04-21T11:05:33;93464.41;;;17.16;47.56
11682;BME280;5897;42.640;23.310;2023-04-21T11:08:04;93450.28;;;16.97;48.63
11682;BME280;5897;42.640;23.310;2023-04-21T11:10:41;93445.69;;;17.09;48.99
11682;BME280;5897;42.640;23.310;2023-04-21T11:13:08;93458.91;;;17.36;48.79
11682;BME280;5897;42.640;23.310;2023-04-21T11:15:35;93461.78;;;17.47;49.83
11682;BME280;5897;42.640;23.310;2023-04-21T11:18:04;93450.41;;;17.74;48.93
11682;BME280;5897;42.640;23.310;2023-04-21T11:20:32;93449.84;;;17.95;47.54
11682;BME280;5897;42.640;23.310;2023-04-21T11:22:59;93448.34;;;18.62;45.82
11682;BME280;5897;42.640;23.310;2023-04-21T11:25:26;93439.19;;;18.65;43.76
11682;BME280;5897;42.640;23.310;2023-04-21T11:27:53;93443.34;;;18.55;43.04
11682;BME280;5897;42.640;23.310;2023-04-21T11:30:21;93433.81;;;18.45;44.17
11682;BME280;5897;42.640;23.310;2023-04-21T11:32:56;93445.81;;;18.53;46.20
11682;BME280;5897;42.640;23.310;2023-04-21T11:35:24;93438.50;;;18.39;45.66
11682;BME280;5897;42.640;23.310;2023-04-21T11:37:51;93450.50;;;18.16;45.19
11682;BME280;5897;42.640;23.310;2023-04-21T11:40:20;93448.13;;;17.98;45.40
11682;BME280;5897;42.640;23.310;2023-04-21T11:42:47;93441.50;;;17.79;44.19
11682;BME280;5897;42.640;23.310;2023-04-21T11:45:17;93443.94;;;17.51;45.62
11682;BME280;5897;42.640;23.310;2023-04-21T11:47:44;93443.09;;;17.40;46.79
11682;BME280;5897;42.640;23.310;2023-04-21T11:50:11;93452.94;;;17.32;48.09
11682;BME280;5897;42.640;23.310;2023-04-21T11:52:56;93450.75;;;17.16;47.51
11682;BME280;5897;42.640;23.310;2023-04-21T11:55:23;93451.91;;;17.09;47.76
11682;BME280;5897;42.640;23.310;2023-04-21T11:57:50;93457.31;;;17.04;47.71
11682;BME280;5897;42.640;23.310;2023-04-21T12:00:18;93451.44;;;17.11;47.41
11682;BME280;5897;42.640;23.310;2023-04-21T12:02:53;93455.44;;;17.15;46.50
11682;BME280;5897;42.640;23.310;2023-04-21T12:05:20;93458.41;;;17.12;45.66
11682;BME280;5897;42.640;23.310;2023-04-21T12:07:47;93451.84;;;16.84;46.98
11682;BME280;5897;42.640;23.310;2023-04-21T12:10:19;93444.69;;;16.66;47.19
11682;BME280;5897;42.640;23.310;2023-04-21T12:12:47;93459.63;;;16.71;47.07
11682;BME280;5897;42.640;23.310;2023-04-21T12:15:17;93461.16;;;16.92;47.86
11682;BME280;5897;42.640;23.310;2023-04-21T12:17:45;93462.13;;;16.94;46.77
11682;BME280;5897;42.640;23.310;2023-04-21T12:20:14;93458.53;;;16.83;45.99
11682;BME280;5897;42.640;23.310;2023-04-21T12:22:41;93449.53;;;16.97;46.11
11682;BME280;5897;42.640;23.310;2023-04-21T12:25:08;93458.69;;;16.94;45.85
11682;BME280;5897;42.640;23.310;2023-04-21T12:27:36;93453.22;;;16.94;45.49
11682;BME280;5897;42.640;23.310;2023-04-21T12:30:04;93463.16;;;16.97;46.73
11682;BME280;5897;42.640;23.310;2023-04-21T12:32:31;93458.13;;;17.10;46.19
11682;BME280;5897;42.640;23.310;2023-04-21T12:34:58;93454.69;;;17.35;46.82
11682;BME280;5897;42.640;23.310;2023-04-21T12:37:26;93451.41;;;17.51;45.30
11682;BME280;5897;42.640;23.310;2023-04-21T12:39:52;93452.66;;;17.75;43.97
11682;BME280;5897;42.640;23.310;2023-04-21T12:42:19;93449.75;;;17.59;44.12
11682;BME280;5897;42.640;23.310;2023-04-21T12:44:47;93455.63;;;17.52;45.27
11682;BME280;5897;42.640;23.310;2023-04-21T12:47:14;93457.00;;;17.62;44.76
11682;BME280;5897;42.640;23.310;2023-04-21T12:49:41;93445.38;;;17.98;44.46
11682;BME280;5897;42.640;23.310;2023-04-21T12:52:08;93443.28;;;18.13;44.03
11682;BME280;5897;42.640;23.310;2023-04-21T12:54:34;93451.94;;;18.37;43.46
11682;BME280;5897;42.640;23.310;2023-04-21T12:57:01;93441.38;;;18.55;42.39
11682;BME280;5897;42.640;23.310;2023-04-21T12:59:28;93434.19;;;19.11;41.17
11682;BME280;5897;42.640;23.310;2023-04-21T13:01:56;93439.13;;;19.71;38.62
11682;BME280;5897;42.640;23.310;2023-04-21T13:04:23;93440.66;;;20.16;39.75